createdAt,value
2023-03-16T00:00:57.655Z,3.99
2023-03-16T00:03:25.274Z,3.97
2023-03-16T00:05:54.946Z,3.99
2023-03-16T00:08:24.637Z,3.97
2023-03-16T00:10:54.168Z,3.95
2023-03-16T00:13:24.698Z,3.91
2023-03-16T00:15:53.081Z,3.90
2023-03-16T00:18:21.531Z,3.96
2023-03-16T00:20:52.727Z,3.90
2023-03-16T00:23:27.612Z,3.82
2023-03-16T00:25:58.673Z,3.83
2023-03-16T00:28:28.483Z,3.82
2023-03-16T00:30:58.898Z,3.81
2023-03-16T00:33:26.863Z,3.77
2023-03-16T00:36:02.083Z,3.76
2023-03-16T00:38:32.175Z,3.79
2023-03-16T00:41:03.661Z,3.73
2023-03-16T00:43:31.565Z,3.66
2023-03-16T00:46:01.202Z,3.70
2023-03-16T00:48:28.898Z,3.63
2023-03-16T00:50:56.564Z,3.65
2023-03-16T00:53:24.295Z,3.66
2023-03-16T00:55:53.311Z,3.59
2023-03-16T00:58:23.288Z,3.63
2023-03-16T01:00:51.299Z,3.61
2023-03-16T01:03:19.031Z,3.57
2023-03-16T01:05:46.731Z,3.56
2023-03-16T01:08:14.411Z,3.48
2023-03-16T01:10:42.159Z,3.52
2023-03-16T01:13:09.813Z,3.49
2023-03-16T01:15:38.874Z,3.57
2023-03-16T01:18:07.820Z,3.49
2023-03-16T01:20:35.551Z,3.46
2023-03-16T01:23:03.480Z,3.45
2023-03-16T01:25:32.434Z,3.44
2023-03-16T01:28:00.250Z,3.40
2023-03-16T01:30:28.431Z,3.43
2023-03-16T01:32:58.385Z,3.38
2023-03-16T01:35:26.037Z,3.40
2023-03-16T01:37:53.828Z,3.38
2023-03-16T01:40:22.095Z,3.36
2023-03-16T01:43:00.438Z,3.36
2023-03-16T01:46:10.578Z,3.34
2023-03-16T01:48:44.726Z,3.31
2023-03-16T01:51:21.088Z,3.29
2023-03-16T01:53:52.995Z,3.30
2023-03-16T01:56:25.917Z,3.27
2023-03-16T01:58:58.986Z,3.30
2023-03-16T02:01:28.223Z,3.31
2023-03-16T02:04:06.056Z,3.33
2023-03-16T02:06:35.257Z,3.28
2023-03-16T02:09:03.918Z,3.30
2023-03-16T02:11:32.207Z,3.27
2023-03-16T02:14:07.338Z,3.26
2023-03-16T02:16:35.183Z,3.24
2023-03-16T02:19:07.629Z,3.23
2023-03-16T02:21:42.741Z,3.19
2023-03-16T02:24:11.068Z,3.17
2023-03-16T02:26:47.544Z,3.13
2023-03-16T02:29:25.564Z,3.13
2023-03-16T02:31:56.313Z,3.12
2023-03-16T02:34:24.721Z,3.05
2023-03-16T02:36:53.880Z,3.08
2023-03-16T02:39:21.494Z,3.02
2023-03-16T02:41:49.245Z,3.01
2023-03-16T02:44:24.066Z,3.03
2023-03-16T02:46:56.870Z,3.06
2023-03-16T02:49:28.073Z,2.98
2023-03-16T02:51:57.451Z,2.96
2023-03-16T02:54:25.358Z,2.99
2023-03-16T02:56:53.028Z,3.00
2023-03-16T02:59:20.699Z,2.98
2023-03-16T03:01:48.327Z,2.95
2023-03-16T03:04:17.553Z,2.96
2023-03-16T03:06:45.574Z,2.92
2023-03-16T03:09:13.275Z,2.97
2023-03-16T03:11:41.691Z,2.95
2023-03-16T03:14:09.318Z,2.90
2023-03-16T03:16:37.153Z,2.97
2023-03-16T03:19:04.920Z,2.98
2023-03-16T03:21:34.182Z,2.93
2023-03-16T03:24:02.585Z,2.89
2023-03-16T03:26:30.254Z,2.85
2023-03-16T03:28:57.886Z,2.77
2023-03-16T03:31:25.540Z,2.72
2023-03-16T03:33:53.753Z,2.71
2023-03-16T03:36:22.146Z,2.75
2023-03-16T03:38:51.147Z,2.79
2023-03-16T03:41:18.747Z,2.66
2023-03-16T03:43:46.600Z,2.71
2023-03-16T03:46:14.536Z,2.67
2023-03-16T03:48:42.286Z,2.76
2023-03-16T03:51:10.350Z,2.63
2023-03-16T03:53:38.069Z,2.68
2023-03-16T03:56:07.994Z,2.70
2023-03-16T03:58:35.652Z,2.71
2023-03-16T04:01:03.303Z,2.70
2023-03-16T04:03:31.180Z,2.67
2023-03-16T04:05:58.887Z,2.67
2023-03-16T04:08:26.513Z,2.75
2023-03-16T04:10:54.092Z,2.74
2023-03-16T04:13:23.059Z,2.72
2023-03-16T04:15:54.270Z,2.63
2023-03-16T04:18:22.044Z,2.66
2023-03-16T04:20:49.800Z,2.71
2023-03-16T04:23:17.483Z,2.77
2023-03-16T04:25:45.401Z,2.76
2023-03-16T04:28:13.264Z,2.78
2023-03-16T04:30:42.889Z,2.75
2023-03-16T04:33:10.667Z,2.83
2023-03-16T04:35:39.503Z,2.80
2023-03-16T04:38:08.017Z,2.86
2023-03-16T04:40:35.779Z,2.95
2023-03-16T04:43:03.421Z,2.97
2023-03-16T04:45:32.323Z,2.97
2023-03-16T04:48:01.381Z,2.99
2023-03-16T04:50:29.185Z,2.98
2023-03-16T04:52:57.248Z,2.96
2023-03-16T04:55:24.813Z,2.88
2023-03-16T04:57:52.961Z,2.75
2023-03-16T05:00:21.688Z,2.78
2023-03-16T05:02:50.393Z,2.79
2023-03-16T05:05:20.234Z,2.82
2023-03-16T05:07:48.436Z,2.83
2023-03-16T05:10:18.788Z,2.79
2023-03-16T05:12:46.649Z,2.76
2023-03-16T05:15:14.887Z,2.82
2023-03-16T05:17:43.006Z,2.87
2023-03-16T05:20:15.847Z,2.84
2023-03-16T05:22:48.118Z,2.77
2023-03-16T05:25:17.436Z,2.71
2023-03-16T05:27:46.667Z,2.73
2023-03-16T05:30:16.243Z,2.63
2023-03-16T05:32:44.640Z,2.63
2023-03-16T05:35:13.612Z,2.65
2023-03-16T05:37:41.564Z,2.61
2023-03-16T05:40:16.832Z,2.57
2023-03-16T05:42:45.897Z,2.57
2023-03-16T05:45:15.603Z,2.60
2023-03-16T05:47:43.867Z,2.54
2023-03-16T05:50:13.032Z,2.47
2023-03-16T05:52:41.662Z,2.46
2023-03-16T05:55:12.077Z,2.43
2023-03-16T05:57:39.788Z,2.33
2023-03-16T06:00:15.401Z,2.36
2023-03-16T06:02:43.621Z,2.25
2023-03-16T06:05:12.037Z,2.22
2023-03-16T06:07:39.843Z,2.25
2023-03-16T06:10:08.461Z,2.20
2023-03-16T06:12:37.390Z,2.28
2023-03-16T06:15:07.261Z,2.37
2023-03-16T06:17:35.072Z,2.42
2023-03-16T06:20:02.808Z,2.39
2023-03-16T06:22:31.038Z,2.41
2023-03-16T06:24:58.668Z,2.42
2023-03-16T06:27:26.519Z,2.55
2023-03-16T06:29:55.655Z,2.66
2023-03-16T06:32:23.504Z,2.56
2023-03-16T06:34:51.351Z,2.52
2023-03-16T06:37:19.779Z,2.59
2023-03-16T06:39:47.526Z,2.62
2023-03-16T06:42:15.514Z,2.62
2023-03-16T06:44:43.619Z,2.71
2023-03-16T06:47:12.853Z,2.80
2023-03-16T06:49:40.773Z,2.80
2023-03-16T06:52:10.475Z,2.84
2023-03-16T06:54:38.117Z,2.98
2023-03-16T06:57:05.908Z,2.92
2023-03-16T06:59:34.463Z,2.99
2023-03-16T07:02:02.393Z,3.10
2023-03-16T07:04:31.665Z,3.15
2023-03-16T07:06:59.593Z,3.05
2023-03-16T07:09:28.400Z,3.17
2023-03-16T07:11:56.010Z,3.05
2023-03-16T07:14:26.091Z,3.09
2023-03-16T07:16:53.859Z,3.26
2023-03-16T07:19:22.503Z,3.29
2023-03-16T07:21:51.567Z,3.34
2023-03-16T07:24:19.241Z,3.33
2023-03-16T07:26:47.286Z,3.44
2023-03-16T07:29:16.975Z,3.56
2023-03-16T07:31:44.737Z,3.62
2023-03-16T07:34:12.642Z,3.74
2023-03-16T07:36:40.337Z,3.82
2023-03-16T07:39:09.769Z,3.99
2023-03-16T07:41:37.441Z,4.06
2023-03-16T07:44:05.417Z,4.11
2023-03-16T07:46:35.816Z,4.23
2023-03-16T07:49:04.665Z,4.25
2023-03-16T07:51:32.395Z,4.31
2023-03-16T07:54:00.125Z,4.36
2023-03-16T07:56:39.039Z,4.26
2023-03-16T07:59:13.750Z,4.33
2023-03-16T08:01:41.440Z,4.44
2023-03-16T08:04:09.160Z,4.54
2023-03-16T08:06:36.837Z,4.67
2023-03-16T08:09:05.752Z,4.64
2023-03-16T08:11:36.182Z,4.59
2023-03-16T08:14:05.626Z,4.64
2023-03-16T08:16:33.466Z,4.78
2023-03-16T08:19:01.277Z,4.80
2023-03-16T08:21:30.217Z,4.83
2023-03-16T08:23:57.870Z,4.78
2023-03-16T08:26:27.281Z,4.84
2023-03-16T08:28:56.293Z,4.87
2023-03-16T08:31:25.274Z,4.97
2023-03-16T08:33:54.050Z,5.09
2023-03-16T08:36:22.144Z,5.27
2023-03-16T08:39:06.164Z,5.27
2023-03-16T08:41:35.203Z,5.33
2023-03-16T08:44:04.562Z,5.41
2023-03-16T08:46:32.357Z,5.35
2023-03-16T08:48:59.963Z,5.32
2023-03-16T08:51:29.416Z,5.41
2023-03-16T08:53:57.325Z,5.39
2023-03-16T08:56:25.024Z,5.44
2023-03-16T08:58:53.050Z,5.50
2023-03-16T09:01:22.212Z,5.58
2023-03-16T09:03:51.288Z,5.62
2023-03-16T09:06:19.920Z,5.76
2023-03-16T09:08:47.867Z,5.81
2023-03-16T09:11:18.675Z,5.98
2023-03-16T09:13:47.244Z,6.12
2023-03-16T09:16:16.237Z,6.06
2023-03-16T09:18:45.523Z,6.18
2023-03-16T09:21:14.046Z,6.29
2023-03-16T09:23:42.964Z,6.32
2023-03-16T09:26:12.718Z,6.35
2023-03-16T09:28:42.451Z,6.48
2023-03-16T09:31:11.611Z,6.62
2023-03-16T09:33:39.936Z,6.60
2023-03-16T09:36:11.422Z,6.61
2023-03-16T09:38:39.447Z,6.70
2023-03-16T09:41:10.605Z,6.69
2023-03-16T09:43:56.684Z,6.73
2023-03-16T09:46:29.004Z,6.77
2023-03-16T09:48:58.005Z,6.84
2023-03-16T09:51:39.563Z,6.73
2023-03-16T09:54:18.174Z,6.77
2023-03-16T09:56:46.902Z,6.76
2023-03-16T09:59:17.374Z,6.80
2023-03-16T10:01:59.823Z,6.86
2023-03-16T10:04:46.262Z,6.89
2023-03-16T10:07:23.977Z,6.96
2023-03-16T10:09:57.964Z,7.07
2023-03-16T10:12:31.935Z,6.97
2023-03-16T10:15:06.723Z,7.22
2023-03-16T10:17:41.000Z,7.18
2023-03-16T10:20:17.410Z,7.15
2023-03-16T10:22:48.287Z,7.24
2023-03-16T10:25:23.252Z,7.18
2023-03-16T10:27:51.638Z,7.13
2023-03-16T10:30:28.220Z,7.16
2023-03-16T10:32:57.548Z,7.16
2023-03-16T10:35:41.580Z,7.26
2023-03-16T10:38:28.004Z,7.31
2023-03-16T10:40:57.817Z,7.31
2023-03-16T10:43:25.871Z,7.43
2023-03-16T10:46:02.082Z,7.52
2023-03-16T10:48:34.163Z,7.53
2023-03-16T10:51:06.417Z,7.63
2023-03-16T10:53:38.362Z,7.64
2023-03-16T10:56:13.390Z,7.65
2023-03-16T10:58:43.646Z,7.78
2023-03-16T11:01:13.605Z,7.77
2023-03-16T11:03:42.420Z,7.84
2023-03-16T11:06:22.793Z,7.81
2023-03-16T11:08:53.980Z,7.87
2023-03-16T11:11:27.983Z,7.89
2023-03-16T11:14:00.092Z,7.94
2023-03-16T11:16:34.345Z,7.93
2023-03-16T11:19:11.130Z,8.02
2023-03-16T11:21:46.453Z,8.16
2023-03-16T11:24:22.998Z,8.22
2023-03-16T11:26:55.554Z,8.24
2023-03-16T11:29:28.372Z,8.24
2023-03-16T11:31:59.777Z,8.32
2023-03-16T11:34:30.540Z,8.37
2023-03-16T11:37:06.283Z,8.41
2023-03-16T11:39:45.425Z,8.46
2023-03-16T11:42:28.411Z,8.47
2023-03-16T11:45:01.630Z,8.44
2023-03-16T11:48:04.892Z,8.45
2023-03-16T11:50:38.400Z,8.49
2023-03-16T11:53:15.913Z,8.55
2023-03-16T11:55:55.608Z,8.65
2023-03-16T11:58:37.444Z,8.64
2023-03-16T12:01:13.206Z,8.60
2023-03-16T12:03:58.283Z,8.60
2023-03-16T12:06:39.278Z,8.73
2023-03-16T12:09:37.657Z,8.87
2023-03-16T12:12:23.293Z,9.02
2023-03-16T12:15:00.022Z,9.15
2023-03-16T12:17:32.159Z,9.17
2023-03-16T12:20:05.885Z,9.23
2023-03-16T12:22:37.280Z,9.34
2023-03-16T12:25:14.712Z,9.46
2023-03-16T12:27:46.280Z,9.60
2023-03-16T12:30:25.749Z,9.58
2023-03-16T12:33:00.679Z,9.50
2023-03-16T12:35:37.848Z,9.63
2023-03-16T12:38:37.678Z,9.67
2023-03-16T12:41:17.930Z,9.79
2023-03-16T12:43:57.278Z,10.14
2023-03-16T12:46:32.487Z,10.22
2023-03-16T12:49:02.969Z,10.27
2023-03-16T12:51:35.322Z,10.23
2023-03-16T12:54:04.038Z,10.01
2023-03-16T12:56:33.433Z,10.09
2023-03-16T12:59:05.633Z,10.06
2023-03-16T13:01:39.248Z,9.96
2023-03-16T13:04:13.462Z,9.96
2023-03-16T13:06:45.280Z,9.90
2023-03-16T13:09:18.431Z,9.80
2023-03-16T13:11:50.897Z,9.86
2023-03-16T13:14:38.127Z,9.92
2023-03-16T13:17:22.854Z,10.06
2023-03-16T13:20:04.022Z,10.22
2023-03-16T13:22:33.247Z,10.24
2023-03-16T13:25:15.489Z,10.20
2023-03-16T13:27:47.111Z,10.08
2023-03-16T13:30:21.051Z,10.22
2023-03-16T13:32:49.674Z,10.25
2023-03-16T13:35:18.937Z,10.33
2023-03-16T13:37:48.146Z,10.38
2023-03-16T13:40:20.101Z,10.43
2023-03-16T13:42:52.709Z,10.48
2023-03-16T13:45:24.128Z,10.60
2023-03-16T13:47:53.249Z,10.62
2023-03-16T13:50:23.554Z,10.59
2023-03-16T13:52:58.639Z,10.44
2023-03-16T13:55:32.229Z,10.50
2023-03-16T13:58:01.687Z,10.40
2023-03-16T14:00:34.575Z,10.35
2023-03-16T14:03:16.223Z,10.47
2023-03-16T14:05:46.276Z,10.38
2023-03-16T14:08:17.438Z,10.33
2023-03-16T14:10:46.757Z,10.22
2023-03-16T14:13:27.518Z,10.25
2023-03-16T14:15:59.123Z,10.08
2023-03-16T14:18:33.616Z,10.06
2023-03-16T14:21:06.436Z,9.99
2023-03-16T14:23:39.023Z,9.93
2023-03-16T14:26:12.550Z,9.80
2023-03-16T14:28:41.517Z,9.76
2023-03-16T14:31:13.841Z,9.67
2023-03-16T14:33:45.953Z,9.58
2023-03-16T14:36:15.382Z,9.48
2023-03-16T14:38:45.293Z,9.41
2023-03-16T14:41:21.579Z,9.41
2023-03-16T14:43:51.656Z,9.42
2023-03-16T14:46:28.716Z,9.33
2023-03-16T14:49:05.182Z,9.25
2023-03-16T14:51:33.763Z,9.17
2023-03-16T14:54:01.604Z,9.24
2023-03-16T14:56:34.850Z,9.27
2023-03-16T14:59:02.726Z,9.36
2023-03-16T15:01:32.316Z,9.32
2023-03-16T15:03:59.977Z,9.36
2023-03-16T15:06:27.666Z,9.28
2023-03-16T15:08:55.421Z,9.30
2023-03-16T15:11:24.533Z,9.27
2023-03-16T15:14:04.206Z,9.21
2023-03-16T15:16:34.357Z,9.11
2023-03-16T15:19:02.094Z,9.07
2023-03-16T15:21:32.817Z,9.13
2023-03-16T15:24:00.930Z,9.14
2023-03-16T15:26:30.574Z,9.08
2023-03-16T15:28:58.532Z,9.07
2023-03-16T15:31:26.906Z,9.11
2023-03-16T15:33:56.071Z,9.06
2023-03-16T15:36:26.632Z,9.12
2023-03-16T15:38:55.536Z,9.15
2023-03-16T15:41:24.937Z,9.03
2023-03-16T15:44:00.496Z,9.09
2023-03-16T15:46:28.868Z,9.04
2023-03-16T15:48:57.834Z,8.99
2023-03-16T15:51:29.869Z,9.04
2023-03-16T15:54:00.055Z,9.04
2023-03-16T15:56:30.893Z,9.04
2023-03-16T15:59:02.028Z,8.94
2023-03-16T16:01:32.010Z,8.93
2023-03-16T16:04:01.190Z,8.96
2023-03-16T16:06:30.333Z,8.94
2023-03-16T16:08:58.036Z,8.91
2023-03-16T16:11:27.982Z,8.95
2023-03-16T16:13:57.447Z,8.88
2023-03-16T16:16:29.151Z,8.90
2023-03-16T16:18:57.968Z,8.92
2023-03-16T16:21:30.855Z,8.88
2023-03-16T16:23:59.186Z,8.86
2023-03-16T16:26:45.491Z,8.88
2023-03-16T16:29:16.769Z,8.91
2023-03-16T16:31:45.787Z,8.94
2023-03-16T16:34:14.524Z,8.92
2023-03-16T16:36:44.740Z,8.86
2023-03-16T16:39:12.713Z,8.86
2023-03-16T16:41:41.763Z,8.84
2023-03-16T16:44:18.012Z,8.82
2023-03-16T16:46:45.887Z,8.85
2023-03-16T16:49:17.350Z,8.73
2023-03-16T16:51:46.813Z,8.74
2023-03-16T16:54:17.530Z,8.70
2023-03-16T16:56:46.385Z,8.69
2023-03-16T16:59:18.070Z,8.66
2023-03-16T17:01:47.246Z,8.67
2023-03-16T17:04:17.465Z,8.61
2023-03-16T17:06:48.763Z,8.63
2023-03-16T17:09:16.361Z,8.67
2023-03-16T17:11:46.314Z,8.59
2023-03-16T17:14:17.942Z,8.57
2023-03-16T17:16:46.995Z,8.64
2023-03-16T17:19:19.641Z,8.59
2023-03-16T17:21:49.036Z,8.52
2023-03-16T17:24:17.335Z,8.52
2023-03-16T17:26:47.634Z,8.57
2023-03-16T17:29:21.004Z,8.52
2023-03-16T17:31:50.161Z,8.53
2023-03-16T17:34:20.370Z,8.41
2023-03-16T17:36:51.120Z,8.39
2023-03-16T17:39:23.762Z,8.33
2023-03-16T17:41:55.617Z,8.32
2023-03-16T17:44:23.513Z,8.32
2023-03-16T17:46:51.265Z,8.34
2023-03-16T17:49:19.953Z,8.34
2023-03-16T17:51:49.015Z,8.40
2023-03-16T17:54:16.822Z,8.38
2023-03-16T17:56:44.978Z,8.39
2023-03-16T17:59:17.404Z,8.39
2023-03-16T18:01:46.954Z,8.37
2023-03-16T18:04:17.894Z,8.33
2023-03-16T18:06:47.515Z,8.35
2023-03-16T18:09:17.115Z,8.33
2023-03-16T18:11:47.931Z,8.34
2023-03-16T18:14:35.700Z,8.31
2023-03-16T18:17:17.981Z,8.26
2023-03-16T18:19:46.885Z,8.18
2023-03-16T18:22:19.279Z,8.17
2023-03-16T18:24:49.638Z,8.18
2023-03-16T18:27:17.971Z,8.23
2023-03-16T18:29:46.898Z,8.24
2023-03-16T18:32:19.049Z,8.16
2023-03-16T18:34:47.372Z,8.16
2023-03-16T18:37:20.972Z,8.03
2023-03-16T18:39:51.716Z,8.05
2023-03-16T18:42:21.748Z,8.07
2023-03-16T18:44:49.728Z,8.03
2023-03-16T18:47:20.960Z,8.07
2023-03-16T18:49:53.664Z,8.01
2023-03-16T18:52:24.457Z,8.00
2023-03-16T18:54:55.533Z,8.02
2023-03-16T18:57:25.463Z,7.96
2023-03-16T18:59:53.990Z,7.99
2023-03-16T19:02:37.748Z,7.97
2023-03-16T19:05:09.891Z,7.92
2023-03-16T19:07:39.802Z,7.93
2023-03-16T19:10:21.406Z,7.93
2023-03-16T19:12:49.399Z,7.91
2023-03-16T19:15:22.895Z,7.94
2023-03-16T19:17:51.392Z,7.87
2023-03-16T19:20:21.350Z,7.82
2023-03-16T19:22:51.925Z,7.80
2023-03-16T19:25:27.230Z,7.85
2023-03-16T19:27:55.684Z,7.82
2023-03-16T19:30:29.149Z,7.76
2023-03-16T19:32:58.900Z,7.73
2023-03-16T19:35:48.412Z,7.80
2023-03-16T19:38:18.140Z,7.79
2023-03-16T19:40:52.856Z,7.78
2023-03-16T19:43:22.213Z,7.79
2023-03-16T19:45:50.814Z,7.78
2023-03-16T19:48:22.523Z,7.76
2023-03-16T19:50:52.820Z,7.75
2023-03-16T19:53:24.363Z,7.79
2023-03-16T19:55:54.529Z,7.74
2023-03-16T19:58:30.203Z,7.71
2023-03-16T20:00:58.799Z,7.74
2023-03-16T20:03:27.468Z,7.71
2023-03-16T20:05:55.658Z,7.68
2023-03-16T20:08:25.683Z,7.68
2023-03-16T20:10:57.486Z,7.67
2023-03-16T20:13:26.213Z,7.71
2023-03-16T20:15:54.255Z,7.78
2023-03-16T20:18:24.708Z,7.88
2023-03-16T20:20:53.045Z,7.91
2023-03-16T20:23:24.448Z,7.99
2023-03-16T20:25:54.389Z,8.00
2023-03-16T20:28:26.019Z,8.00
2023-03-16T20:30:54.959Z,8.00
2023-03-16T20:33:24.256Z,7.91
2023-03-16T20:35:54.730Z,7.87
2023-03-16T20:38:23.810Z,7.78
2023-03-16T20:40:56.582Z,7.74
2023-03-16T20:43:29.366Z,7.74
2023-03-16T20:46:00.032Z,7.73
2023-03-16T20:48:29.186Z,7.72
2023-03-16T20:50:59.902Z,7.80
2023-03-16T20:53:30.785Z,7.86
2023-03-16T20:55:59.010Z,7.89
2023-03-16T20:58:28.834Z,7.84
2023-03-16T21:00:58.212Z,7.87
2023-03-16T21:03:28.446Z,7.73
2023-03-16T21:06:00.013Z,7.76
2023-03-16T21:08:28.497Z,7.76
2023-03-16T21:10:59.484Z,7.80
2023-03-16T21:13:31.288Z,7.77
2023-03-16T21:16:01.396Z,7.80
2023-03-16T21:18:31.330Z,7.69
2023-03-16T21:20:59.042Z,7.68
2023-03-16T21:23:26.789Z,7.62
2023-03-16T21:25:56.775Z,7.50
2023-03-16T21:28:26.321Z,7.58
2023-03-16T21:30:57.344Z,7.52
2023-03-16T21:33:30.052Z,7.46
2023-03-16T21:35:58.515Z,7.50
2023-03-16T21:38:29.115Z,7.49
2023-03-16T21:40:57.151Z,7.46
2023-03-16T21:43:25.287Z,7.44
2023-03-16T21:45:54.000Z,7.42
2023-03-16T21:48:26.605Z,7.43
2023-03-16T21:50:54.852Z,7.45
2023-03-16T21:53:24.274Z,7.38
2023-03-16T21:55:53.322Z,7.36
2023-03-16T21:58:22.169Z,7.37
2023-03-16T22:00:51.041Z,7.38
2023-03-16T22:03:25.904Z,7.37
2023-03-16T22:05:54.175Z,7.35
2023-03-16T22:08:24.238Z,7.32
2023-03-16T22:10:52.984Z,7.29
2023-03-16T22:13:22.273Z,7.29
2023-03-16T22:15:52.749Z,7.26
2023-03-16T22:18:31.705Z,7.21
2023-03-16T22:21:00.800Z,7.25
2023-03-16T22:23:31.929Z,7.18
2023-03-16T22:25:59.703Z,7.20
2023-03-16T22:28:27.985Z,7.24
2023-03-16T22:30:58.413Z,7.27
2023-03-16T22:33:39.937Z,7.30
2023-03-16T22:36:11.735Z,7.28
2023-03-16T22:38:42.243Z,7.25
2023-03-16T22:41:14.679Z,7.26
2023-03-16T22:43:45.732Z,7.26
2023-03-16T22:46:20.609Z,7.20
2023-03-16T22:48:50.081Z,7.14
2023-03-16T22:51:24.074Z,7.17
2023-03-16T22:53:54.016Z,7.21
2023-03-16T22:56:21.712Z,7.19
2023-03-16T22:58:52.256Z,7.21
2023-03-16T23:01:22.993Z,7.22
2023-03-16T23:03:56.456Z,7.17
2023-03-16T23:06:26.500Z,7.17
2023-03-16T23:08:55.285Z,7.16
2023-03-16T23:11:25.050Z,7.17
2023-03-16T23:13:54.089Z,7.21
2023-03-16T23:16:23.871Z,7.16
2023-03-16T23:18:53.225Z,7.16
2023-03-16T23:21:23.552Z,7.21
2023-03-16T23:24:03.229Z,7.16
2023-03-16T23:26:32.753Z,7.18
2023-03-16T23:29:00.633Z,7.15
2023-03-16T23:31:28.549Z,7.14
2023-03-16T23:33:57.501Z,7.19
2023-03-16T23:36:27.116Z,7.22
2023-03-16T23:38:54.800Z,7.26
2023-03-16T23:41:25.215Z,7.22
2023-03-16T23:43:54.808Z,7.22
2023-03-16T23:46:24.625Z,7.20
2023-03-16T23:48:55.152Z,7.19
2023-03-16T23:51:27.202Z,7.24
2023-03-16T23:53:55.013Z,7.23
2023-03-16T23:56:23.056Z,7.20
2023-03-16T23:58:50.920Z,7.21
